Time;durP1;ratioP1;P1;durP2;ratioP2;P2;SDS_P1;SDS_P2;PMS_P1;PMS_P2;Temp;Humidity;BMP_temperature;BMP_pressure;BME280_temperature;BME280_humidity;BME280_pressure;Samples;Min_cycle;Max_cycle;Signal;HPM_P1;HPM_P2
2022/04/08 00:00:48;;;;;;;3.67;1.17;;;;;;;;;;5032778;28;20101;-67
2022/04/08 00:03:14;;;;;;;4.50;1.42;;;;;;;;;;5032505;28;20036;-67
2022/04/08 00:05:40;;;;;;;5.38;1.50;;;;;;;;;;5025121;28;20065;-66
2022/04/08 00:08:06;;;;;;;9.88;1.60;;;;;;;;;;5031953;28;20018;-64
2022/04/08 00:10:32;;;;;;;9.60;2.00;;;;;;;;;;5032253;28;20013;-67
2022/04/08 00:12:58;;;;;;;5.50;1.15;;;;;;;;;;5032221;28;20056;-68
2022/04/08 00:15:24;;;;;;;4.88;1.42;;;;;;;;;;5027656;28;20030;-67
2022/04/08 00:17:50;;;;;;;2.17;0.75;;;;;;;;;;5021658;28;22624;-66
2022/04/08 00:20:16;;;;;;;4.30;1.20;;;;;;;;;;5024767;28;20088;-65
2022/04/08 00:22:42;;;;;;;3.30;1.20;;;;;;;;;;5032628;28;20096;-66
2022/04/08 00:25:11;;;;;;;5.43;1.35;;;;;;;;;;5030685;28;20104;-66
2022/04/08 00:27:38;;;;;;;4.60;1.83;;;;;;;;;;5029449;28;20026;-63
2022/04/08 00:30:05;;;;;;;4.32;1.20;;;;;;;;;;5021433;28;20029;-68
2022/04/08 00:32:33;;;;;;;4.03;1.77;;;;;;;;;;5014257;28;20115;-65
2022/04/08 00:34:59;;;;;;;6.68;1.40;;;;;;;;;;5028870;28;20053;-65
2022/04/08 00:37:25;;;;;;;4.50;1.10;;;;;;;;;;5029892;28;20021;-64
2022/04/08 00:39:52;;;;;;;7.68;1.23;;;;;;;;;;5031586;28;20033;-65
2022/04/08 00:42:18;;;;;;;6.20;1.30;;;;;;;;;;5013230;28;20541;-64
2022/04/08 00:44:43;;;;;;;2.95;0.93;;;;;;;;;;5014051;28;20029;-68
2022/04/08 00:47:11;;;;;;;5.93;1.65;;;;;;;;;;5031153;28;20491;-66
2022/04/08 00:49:37;;;;;;;6.32;1.80;;;;;;;;;;5031439;28;20030;-65
2022/04/08 00:52:03;;;;;;;8.30;2.08;;;;;;;;;;5031445;28;20017;-65
2022/04/08 00:54:33;;;;;;;11.13;1.98;;;;;;;;;;5011973;28;20124;-66
2022/04/08 00:56:59;;;;;;;5.22;1.25;;;;;;;;;;5030982;28;20420;-65
2022/04/08 00:59:26;;;;;;;6.85;2.13;;;;;;;;;;5031148;28;20109;-66
2022/04/08 01:01:52;;;;;;;5.53;1.48;;;;;;;;;;5031334;28;20025;-66
2022/04/08 01:04:21;;;;;;;5.65;2.08;;;;;;;;;;5031267;28;20056;-63
2022/04/08 01:06:47;;;;;;;4.20;1.50;;;;;;;;;;5024289;28;20044;-66
2022/04/08 01:09:13;;;;;;;3.20;1.25;;;;;;;;;;5030592;28;20030;-65
2022/04/08 01:11:39;;;;;;;8.02;1.52;;;;;;;;;;5031267;28;20096;-63
2022/04/08 01:14:11;;;;;;;5.28;1.70;;;;;;;;;;5031240;28;20018;-65
2022/04/08 01:16:38;;;;;;;8.32;2.13;;;;;;;;;;5031347;28;20396;-68
2022/04/08 01:19:04;;;;;;;4.18;1.25;;;;;;;;;;5030499;28;20053;-67
2022/04/08 01:21:31;;;;;;;6.35;1.52;;;;;;;;;;5030965;28;20059;-66
2022/04/08 01:23:58;;;;;;;4.13;1.40;;;;;;;;;;5031197;28;20079;-66
2022/04/08 01:26:24;;;;;;;6.55;1.15;;;;;;;;;;5031335;28;20500;-66
2022/04/08 01:28:50;;;;;;;5.32;1.73;;;;;;;;;;5030956;28;20044;-68
2022/04/08 01:31:16;;;;;;;3.65;1.38;;;;;;;;;;5031284;28;20060;-67
2022/04/08 01:33:42;;;;;;;4.90;1.50;;;;;;;;;;5030985;28;20057;-67
2022/04/08 01:36:08;;;;;;;5.10;1.20;;;;;;;;;;5031075;28;20367;-68
2022/04/08 01:38:34;;;;;;;5.10;1.02;;;;;;;;;;5030295;28;20094;-68
2022/04/08 01:41:01;;;;;;;8.98;1.90;;;;;;;;;;5013295;28;20032;-65
2022/04/08 01:43:27;;;;;;;4.15;1.45;;;;;;;;;;5031311;28;20060;-66
2022/04/08 01:45:53;;;;;;;4.47;1.35;;;;;;;;;;5030892;28;20021;-66
2022/04/08 01:48:19;;;;;;;6.78;1.98;;;;;;;;;;5029952;28;20032;-66
2022/04/08 01:50:45;;;;;;;4.97;1.13;;;;;;;;;;5030770;28;20475;-67
2022/04/08 01:53:13;;;;;;;8.60;1.60;;;;;;;;;;5034225;28;20029;-64
2022/04/08 01:55:39;;;;;;;4.80;1.25;;;;;;;;;;5014160;28;20071;-68
2022/04/08 01:58:06;;;;;;;3.67;1.05;;;;;;;;;;5033835;28;20479;-68
2022/04/08 02:00:32;;;;;;;3.85;1.38;;;;;;;;;;5034464;28;20029;-67
2022/04/08 02:02:58;;;;;;;4.55;1.15;;;;;;;;;;5034654;28;20415;-67
2022/04/08 02:05:24;;;;;;;2.22;0.80;;;;;;;;;;5034678;28;20035;-67
2022/04/08 02:07:53;;;;;;;5.53;1.80;;;;;;;;;;5033856;28;20434;-67
2022/04/08 02:10:19;;;;;;;3.60;1.20;;;;;;;;;;5016657;28;20026;-66
2022/04/08 02:12:45;;;;;;;2.05;0.85;;;;;;;;;;5034732;28;20017;-66
2022/04/08 02:15:11;;;;;;;2.95;1.52;;;;;;;;;;5035162;28;20030;-65
2022/04/08 02:17:37;;;;;;;4.13;1.30;;;;;;;;;;5034098;28;20398;-68
2022/04/08 02:20:08;;;;;;;3.28;0.93;;;;;;;;;;5034922;28;20045;-66
2022/04/08 02:22:35;;;;;;;3.67;1.08;;;;;;;;;;5034404;28;20100;-66
2022/04/08 02:25:02;;;;;;;5.90;1.35;;;;;;;;;;5034387;28;20071;-67
2022/04/08 02:27:28;;;;;;;3.63;1.30;;;;;;;;;;5033545;28;20025;-65
2022/04/08 02:29:56;;;;;;;3.13;1.27;;;;;;;;;;5034001;28;20029;-66
2022/04/08 02:32:22;;;;;;;6.63;1.20;;;;;;;;;;5033892;28;20036;-63
2022/04/08 02:34:48;;;;;;;5.60;1.50;;;;;;;;;;5034262;28;20025;-66
2022/04/08 02:37:14;;;;;;;6.28;1.20;;;;;;;;;;5033571;28;20051;-66
2022/04/08 02:39:40;;;;;;;4.63;1.10;;;;;;;;;;5034078;28;20025;-67
2022/04/08 02:42:06;;;;;;;3.03;1.25;;;;;;;;;;5033889;28;20033;-67
2022/04/08 02:44:32;;;;;;;5.00;1.85;;;;;;;;;;5033907;28;20550;-66
2022/04/08 02:46:58;;;;;;;6.22;1.80;;;;;;;;;;5033714;28;20074;-67
2022/04/08 02:49:24;;;;;;;6.63;1.38;;;;;;;;;;5033792;28;20057;-67
2022/04/08 02:51:50;;;;;;;2.70;1.20;;;;;;;;;;5033893;28;20041;-67
2022/04/08 02:54:16;;;;;;;2.28;1.02;;;;;;;;;;5033855;28;20155;-66
2022/04/08 02:56:42;;;;;;;6.50;1.85;;;;;;;;;;5034050;28;20518;-67
2022/04/08 02:59:09;;;;;;;3.50;1.50;;;;;;;;;;5025115;28;20030;-66
2022/04/08 03:01:35;;;;;;;3.58;1.35;;;;;;;;;;5030035;28;20033;-66
2022/04/08 03:04:02;;;;;;;4.68;1.27;;;;;;;;;;5032769;28;20143;-66
2022/04/08 03:06:28;;;;;;;4.72;2.25;;;;;;;;;;5033280;28;20025;-68
2022/04/08 03:08:54;;;;;;;3.60;1.20;;;;;;;;;;5032743;28;20032;-64
2022/04/08 03:11:20;;;;;;;2.50;1.20;;;;;;;;;;5033301;28;20030;-67
2022/04/08 03:13:46;;;;;;;5.57;1.40;;;;;;;;;;5033161;28;20502;-66
2022/04/08 03:16:12;;;;;;;3.92;1.33;;;;;;;;;;5032975;28;20025;-66
2022/04/08 03:18:37;;;;;;;4.47;1.58;;;;;;;;;;5032862;28;20447;-67
2022/04/08 03:21:03;;;;;;;5.93;1.95;;;;;;;;;;5033232;28;20036;-67
2022/04/08 03:23:29;;;;;;;2.85;1.48;;;;;;;;;;5033200;28;20029;-67
2022/04/08 03:25:55;;;;;;;5.15;1.40;;;;;;;;;;5033159;28;20032;-67
2022/04/08 03:28:21;;;;;;;5.45;1.02;;;;;;;;;;5021662;28;20022;-67
2022/04/08 03:30:48;;;;;;;3.25;1.52;;;;;;;;;;5033258;28;20672;-67
2022/04/08 03:33:14;;;;;;;5.43;1.10;;;;;;;;;;5033146;28;20025;-69
2022/04/08 03:35:40;;;;;;;2.92;1.30;;;;;;;;;;5033138;28;20554;-67
2022/04/08 03:38:05;;;;;;;3.88;1.10;;;;;;;;;;5032340;28;20014;-64
2022/04/08 03:40:32;;;;;;;5.53;1.40;;;;;;;;;;5033050;28;20049;-66
2022/04/08 03:42:58;;;;;;;3.13;1.23;;;;;;;;;;5048762;22;20049;-70
2022/04/08 03:45:24;;;;;;;3.30;1.35;;;;;;;;;;5032917;28;20026;-70
2022/04/08 03:47:51;;;;;;;3.03;1.00;;;;;;;;;;5030833;28;20025;-70
2022/04/08 03:50:17;;;;;;;1.90;0.80;;;;;;;;;;5032697;28;20078;-70
2022/04/08 03:52:43;;;;;;;3.65;1.23;;;;;;;;;;5031478;28;20053;-70
2022/04/08 03:55:09;;;;;;;2.72;1.00;;;;;;;;;;5026145;28;20026;-71
2022/04/08 03:57:35;;;;;;;3.47;1.27;;;;;;;;;;5027331;28;20424;-71
2022/04/08 04:00:01;;;;;;;4.60;1.17;;;;;;;;;;5032124;28;20075;-71
2022/04/08 04:02:28;;;;;;;7.03;1.10;;;;;;;;;;5030996;28;20542;-71
2022/04/08 04:04:59;;;;;;;1.33;0.65;;;;;;;;;;5031239;28;20029;-70
2022/04/08 04:07:25;;;;;;;;;;;;;;;;;;5027381;28;20029;-71
2022/04/08 04:09:51;;;;;;;2.72;0.88;;;;;;;;;;5032572;28;19920;-70
2022/04/08 04:12:17;;;;;;;2.47;0.88;;;;;;;;;;5032185;28;20033;-69
2022/04/08 04:14:43;;;;;;;5.10;1.30;;;;;;;;;;5030635;28;20025;-69
2022/04/08 04:17:09;;;;;;;4.40;1.25;;;;;;;;;;5031125;28;20032;-69
2022/04/08 04:19:35;;;;;;;2.20;0.80;;;;;;;;;;5032170;28;20064;-71
2022/04/08 04:22:01;;;;;;;3.72;1.50;;;;;;;;;;5032378;28;20491;-70
2022/04/08 04:24:27;;;;;;;2.65;1.10;;;;;;;;;;5032800;28;20025;-69
2022/04/08 04:26:53;;;;;;;2.70;1.23;;;;;;;;;;5028144;28;20029;-69
2022/04/08 04:29:19;;;;;;;3.28;1.35;;;;;;;;;;5025837;28;20117;-70
2022/04/08 04:31:45;;;;;;;1.52;0.88;;;;;;;;;;5032381;28;20023;-70
2022/04/08 04:34:11;;;;;;;2.35;1.05;;;;;;;;;;5030902;28;20013;-69
2022/04/08 04:36:37;;;;;;;1.35;1.10;;;;;;;;;;5031263;28;20028;-69
2022/04/08 04:39:03;;;;;;;3.97;1.52;;;;;;;;;;5031556;28;20021;-69
2022/04/08 04:41:29;;;;;;;7.93;2.00;;;;;;;;;;5031609;28;20032;-71
2022/04/08 04:43:55;;;;;;;1.73;0.95;;;;;;;;;;5023395;28;20522;-70
2022/04/08 04:46:21;;;;;;;4.10;1.33;;;;;;;;;;5031416;28;20542;-72
2022/04/08 04:48:47;;;;;;;1.98;1.40;;;;;;;;;;5030841;28;20500;-70
2022/04/08 04:51:16;;;;;;;3.63;1.45;;;;;;;;;;5024767;28;20030;-70
2022/04/08 04:53:42;;;;;;;2.40;1.33;;;;;;;;;;5026616;28;20398;-71
2022/04/08 04:56:08;;;;;;;2.15;1.35;;;;;;;;;;5030077;28;20017;-70
2022/04/08 04:58:34;;;;;;;1.80;1.20;;;;;;;;;;5030465;28;20494;-70
2022/04/08 05:01:00;;;;;;;3.33;1.52;;;;;;;;;;5031842;28;20041;-70
2022/04/08 05:03:26;;;;;;;3.92;1.02;;;;;;;;;;5030166;28;20017;-69
2022/04/08 05:05:53;;;;;;;3.33;1.35;;;;;;;;;;5022117;28;20079;-71
2022/04/08 05:08:20;;;;;;;3.85;1.02;;;;;;;;;;5029077;28;20368;-69
2022/04/08 05:10:46;;;;;;;3.67;1.05;;;;;;;;;;5031193;28;20026;-69
2022/04/08 05:13:13;;;;;;;6.07;1.45;;;;;;;;;;5031336;28;20021;-71
2022/04/08 05:15:42;;;;;;;2.30;1.13;;;;;;;;;;5031261;28;20079;-70
2022/04/08 05:18:09;;;;;;;3.17;1.15;;;;;;;;;;5030155;28;20095;-71
2022/04/08 05:20:34;;;;;;;2.95;1.20;;;;;;;;;;5030962;28;20056;-71
2022/04/08 05:23:01;;;;;;;4.72;1.15;;;;;;;;;;5031078;28;20030;-71
2022/04/08 05:25:27;;;;;;;3.90;1.75;;;;;;;;;;5029242;28;20022;-70
2022/04/08 05:27:53;;;;;;;3.05;1.10;;;;;;;;;;5029633;28;20059;-71
2022/04/08 05:30:19;;;;;;;5.35;1.33;;;;;;;;;;5030815;28;20085;-71
2022/04/08 05:32:46;;;;;;;2.78;1.10;;;;;;;;;;5030797;28;20029;-70
2022/04/08 05:35:14;;;;;;;2.35;1.45;;;;;;;;;;5030994;28;20028;-70
2022/04/08 05:37:42;;;;;;;4.38;1.30;;;;;;;;;;5028671;28;20029;-70
2022/04/08 05:40:08;;;;;;;2.45;1.05;;;;;;;;;;5031054;28;20068;-70
2022/04/08 05:42:34;;;;;;;1.65;1.20;;;;;;;;;;5030414;28;20395;-71
2022/04/08 05:45:00;;;;;;;1.52;1.20;;;;;;;;;;5030151;28;20033;-69
2022/04/08 05:47:31;;;;;;;4.22;1.48;;;;;;;;;;5029200;28;20037;-70
2022/04/08 05:50:00;;;;;;;1.20;1.10;;;;;;;;;;5029175;28;20029;-71
2022/04/08 05:52:26;;;;;;;3.17;1.35;;;;;;;;;;5027255;28;20322;-70
2022/04/08 05:54:52;;;;;;;1.25;0.98;;;;;;;;;;5024931;28;20038;-68
2022/04/08 05:57:22;;;;;;;2.75;1.00;;;;;;;;;;5029231;28;20432;-70
2022/04/08 05:59:48;;;;;;;3.58;1.35;;;;;;;;;;5030666;28;20022;-70
2022/04/08 06:02:14;;;;;;;5.50;1.27;;;;;;;;;;5039444;28;20542;-71
2022/04/08 06:04:40;;;;;;;4.13;1.52;;;;;;;;;;5030440;28;20488;-71
2022/04/08 06:07:06;;;;;;;2.60;1.17;;;;;;;;;;5029557;28;20514;-69
2022/04/08 06:09:32;;;;;;;4.45;1.30;;;;;;;;;;5030119;28;20018;-69
2022/04/08 06:11:59;;;;;;;4.97;1.33;;;;;;;;;;5028764;28;20075;-70
2022/04/08 06:14:26;;;;;;;3.13;0.90;;;;;;;;;;5034875;28;20017;-70
2022/04/08 06:16:52;;;;;;;3.53;1.10;;;;;;;;;;5035835;28;20441;-70
2022/04/08 06:19:18;;;;;;;2.08;1.08;;;;;;;;;;5021682;28;20022;-69
2022/04/08 06:21:43;;;;;;;2.90;1.30;;;;;;;;;;5028566;28;20024;-71
2022/04/08 06:24:10;;;;;;;3.58;0.90;;;;;;;;;;5029479;28;20427;-69
2022/04/08 06:26:36;;;;;;;2.03;1.00;;;;;;;;;;5028238;28;20022;-70
2022/04/08 06:29:04;;;;;;;1.75;0.82;;;;;;;;;;5029410;28;20059;-70
2022/04/08 06:31:30;;;;;;;2.55;0.73;;;;;;;;;;5027370;28;20483;-70
2022/04/08 06:33:58;;;;;;;2.47;0.93;;;;;;;;;;5027495;28;20037;-72
2022/04/08 06:36:24;;;;;;;6.88;1.58;;;;;;;;;;5021300;28;20033;-70
2022/04/08 06:38:50;;;;;;;1.77;1.10;;;;;;;;;;5023200;28;20467;-74
2022/04/08 06:41:16;;;;;;;5.25;1.20;;;;;;;;;;5030182;28;20390;-72
2022/04/08 06:43:42;;;;;;;1.55;0.85;;;;;;;;;;5031635;28;20017;-73
2022/04/08 06:46:08;;;;;;;94.80;52.80;;;;;;;;;;5033950;28;20396;-74
2022/04/08 06:48:34;;;;;;;124.20;64.97;;;;;;;;;;5024309;28;20025;-72
2022/04/08 06:51:04;;;;;;;12.52;6.97;;;;;;;;;;5032929;28;20060;-73
2022/04/08 06:53:30;;;;;;;30.48;16.08;;;;;;;;;;5033443;28;20022;-74
2022/04/08 06:55:56;;;;;;;25.42;14.57;;;;;;;;;;5030083;28;20063;-73
2022/04/08 06:58:26;;;;;;;31.40;17.85;;;;;;;;;;5032254;28;20025;-72
2022/04/08 07:00:52;;;;;;;30.58;17.30;;;;;;;;;;5033318;28;20029;-74
2022/04/08 07:03:18;;;;;;;14.43;7.63;;;;;;;;;;5033561;28;20399;-73
2022/04/08 07:05:43;;;;;;;16.88;7.07;;;;;;;;;;5031789;28;20040;-73
2022/04/08 07:08:10;;;;;;;10.70;6.75;;;;;;;;;;5032047;28;20151;-74
2022/04/08 07:10:38;;;;;;;8.15;4.30;;;;;;;;;;5032942;28;20045;-73
2022/04/08 07:13:04;;;;;;;6.80;3.95;;;;;;;;;;5029370;28;20498;-73
2022/04/08 07:15:30;;;;;;;10.82;6.18;;;;;;;;;;5033579;28;20029;-72
2022/04/08 07:17:56;;;;;;;19.63;9.88;;;;;;;;;;5032000;28;20025;-74
2022/04/08 07:20:23;;;;;;;34.72;21.08;;;;;;;;;;5025285;28;20040;-74
2022/04/08 07:22:50;;;;;;;3.78;2.08;;;;;;;;;;5029643;28;20466;-75
2022/04/08 07:25:16;;;;;;;22.35;13.45;;;;;;;;;;5033076;28;20548;-71
2022/04/08 07:27:52;;;;;;;24.33;12.43;;;;;;;;;;5032102;28;20037;-73
2022/04/08 07:30:19;;;;;;;4.72;1.40;;;;;;;;;;5026519;28;20026;-74
2022/04/08 07:32:51;;;;;;;16.88;7.72;;;;;;;;;;5033010;28;20049;-73
2022/04/08 07:35:17;;;;;;;11.75;5.57;;;;;;;;;;5032589;28;20101;-73
2022/04/08 07:37:46;;;;;;;14.20;8.23;;;;;;;;;;5032056;28;20144;-74
2022/04/08 07:40:13;;;;;;;17.02;8.50;;;;;;;;;;5030946;28;20495;-68
2022/04/08 07:42:39;;;;;;;9.32;5.30;;;;;;;;;;5032500;28;20044;-69
2022/04/08 07:45:06;;;;;;;10.57;5.45;;;;;;;;;;5027414;28;20057;-69
2022/04/08 07:47:32;;;;;;;7.40;3.35;;;;;;;;;;5030950;28;20021;-69
2022/04/08 07:49:59;;;;;;;8.05;4.05;;;;;;;;;;5027834;28;20379;-69
2022/04/08 07:52:28;;;;;;;4.90;2.65;;;;;;;;;;5019152;28;20044;-70
2022/04/08 07:54:55;;;;;;;3.80;1.65;;;;;;;;;;5028195;28;20032;-69
2022/04/08 07:57:21;;;;;;;9.82;5.03;;;;;;;;;;5037714;28;20029;-72
2022/04/08 07:59:47;;;;;;;4.07;1.92;;;;;;;;;;5029721;28;20076;-75
2022/04/08 08:02:13;;;;;;;11.57;6.65;;;;;;;;;;5032096;28;20029;-74
2022/04/08 08:04:39;;;;;;;68.20;34.65;;;;;;;;;;5032333;28;20621;-72
2022/04/08 08:07:06;;;;;;;56.72;26.65;;;;;;;;;;5023177;28;20025;-72
2022/04/08 08:09:33;;;;;;;11.98;6.93;;;;;;;;;;5032128;28;20590;-74
2022/04/08 08:11:59;;;;;;;236.73;118.82;;;;;;;;;;5024749;28;20068;-71
2022/04/08 08:14:25;;;;;;;56.38;26.33;;;;;;;;;;5031888;28;20092;-74
2022/04/08 08:16:51;;;;;;;19.60;9.35;;;;;;;;;;5031964;28;20517;-77
2022/04/08 08:19:17;;;;;;;88.57;46.15;;;;;;;;;;5025431;28;20029;-73
2022/04/08 08:21:43;;;;;;;38.08;19.45;;;;;;;;;;5031815;28;20060;-74
2022/04/08 08:24:09;;;;;;;25.25;11.32;;;;;;;;;;5031926;28;20025;-73
2022/04/08 08:26:35;;;;;;;26.83;12.25;;;;;;;;;;5035390;28;20025;-75
2022/04/08 08:29:02;;;;;;;50.17;25.98;;;;;;;;;;5031122;28;20079;-75
2022/04/08 08:31:28;;;;;;;64.30;32.65;;;;;;;;;;5030442;28;20014;-74
2022/04/08 08:33:54;;;;;;;23.92;12.48;;;;;;;;;;5029035;28;20079;-73
2022/04/08 08:36:21;;;;;;;86.55;49.47;;;;;;;;;;5022810;28;20068;-75
2022/04/08 08:38:47;;;;;;;88.82;41.03;;;;;;;;;;5031095;28;20039;-75
2022/04/08 08:41:14;;;;;;;67.03;33.60;;;;;;;;;;5030220;28;20704;-73
2022/04/08 08:43:40;;;;;;;49.17;22.63;;;;;;;;;;5031635;28;20022;-73
2022/04/08 08:46:09;;;;;;;63.35;31.88;;;;;;;;;;5030185;28;20113;-74
2022/04/08 08:48:38;;;;;;;30.63;14.05;;;;;;;;;;5028404;28;20100;-74
2022/04/08 08:51:05;;;;;;;60.90;28.75;;;;;;;;;;5027066;28;20447;-73
2022/04/08 08:53:31;;;;;;;25.85;11.13;;;;;;;;;;5025987;28;20033;-73
2022/04/08 08:55:57;;;;;;;70.45;34.88;;;;;;;;;;5024119;28;20040;-74
2022/04/08 08:58:23;;;;;;;15.95;6.95;;;;;;;;;;5022697;28;20021;-73
2022/04/08 09:00:49;;;;;;;18.15;8.35;;;;;;;;;;5027908;28;20059;-76
2022/04/08 09:03:15;;;;;;;30.40;15.63;;;;;;;;;;5020301;28;20033;-74
2022/04/08 09:05:45;;;;;;;5.85;3.10;;;;;;;;;;5024998;28;20045;-72
2022/04/08 09:08:13;;;;;;;9.32;4.15;;;;;;;;;;5027861;28;20068;-70
2022/04/08 09:10:46;;;;;;;12.98;6.50;;;;;;;;;;5029760;28;20115;-68
2022/04/08 09:13:12;;;;;;;6.57;3.30;;;;;;;;;;5028538;28;20030;-71
2022/04/08 09:15:41;;;;;;;10.27;4.88;;;;;;;;;;5027147;28;20056;-70
2022/04/08 09:18:11;;;;;;;12.30;5.50;;;;;;;;;;5027939;28;20455;-71
2022/04/08 09:20:41;;;;;;;6.57;3.92;;;;;;;;;;5029031;28;20107;-71
2022/04/08 09:23:08;;;;;;;7.95;3.97;;;;;;;;;;5028053;28;20033;-71
2022/04/08 09:25:34;;;;;;;10.63;5.35;;;;;;;;;;5029759;28;20029;-71
2022/04/08 09:28:05;;;;;;;8.25;3.65;;;;;;;;;;5029574;28;20399;-69
2022/04/08 09:30:31;;;;;;;8.55;3.67;;;;;;;;;;5031533;28;20025;-70
2022/04/08 09:32:58;;;;;;;12.00;4.55;;;;;;;;;;5031655;28;20080;-70
2022/04/08 09:35:24;;;;;;;11.32;5.05;;;;;;;;;;5031536;28;20459;-72
2022/04/08 09:38:01;;;;;;;7.13;3.47;;;;;;;;;;5030738;28;20433;-69
2022/04/08 09:40:34;;;;;;;4.85;2.00;;;;;;;;;;5031357;28;20530;-71
2022/04/08 09:43:00;;;;;;;6.47;3.13;;;;;;;;;;5045894;23;20061;-66
2022/04/08 09:45:27;;;;;;;7.40;3.22;;;;;;;;;;5031399;28;20449;-66
2022/04/08 09:47:53;;;;;;;5.40;2.38;;;;;;;;;;5030336;28;20021;-68
2022/04/08 09:50:19;;;;;;;5.68;3.60;;;;;;;;;;5013300;28;20029;-68
2022/04/08 09:52:45;;;;;;;7.80;3.40;;;;;;;;;;5019362;28;20024;-66
2022/04/08 09:55:11;;;;;;;7.03;3.28;;;;;;;;;;5051562;28;20029;-65
2022/04/08 09:57:39;;;;;;;3.42;1.50;;;;;;;;;;5028937;28;20040;-68
2022/04/08 10:00:06;;;;;;;8.15;4.35;;;;;;;;;;5013473;28;20052;-69
2022/04/08 10:02:33;;;;;;;10.27;3.20;;;;;;;;;;5030660;28;20080;-67
2022/04/08 10:04:59;;;;;;;2.30;1.23;;;;;;;;;;5031576;28;20506;-71
2022/04/08 10:07:27;;;;;;;4.85;2.25;;;;;;;;;;5030568;28;20480;-68
2022/04/08 10:09:58;;;;;;;7.70;4.20;;;;;;;;;;5031076;28;20026;-66
2022/04/08 10:12:32;;;;;;;5.50;2.58;;;;;;;;;;5030829;28;20018;-67
2022/04/08 10:15:11;;;;;;;11.30;4.57;;;;;;;;;;5034256;28;20036;-66
2022/04/08 10:17:36;;;;;;;4.97;2.50;;;;;;;;;;5032129;28;20048;-68
2022/04/08 10:20:19;;;;;;;5.80;2.70;;;;;;;;;;5013607;28;20026;-66
2022/04/08 10:22:45;;;;;;;3.80;1.20;;;;;;;;;;4997016;28;20452;-68
2022/04/08 10:25:16;;;;;;;4.78;1.90;;;;;;;;;;4997070;28;20053;-66
2022/04/08 10:27:43;;;;;;;5.32;1.77;;;;;;;;;;5013685;28;20517;-66
2022/04/08 10:30:13;;;;;;;5.25;2.20;;;;;;;;;;5014695;28;20030;-66
2022/04/08 10:32:40;;;;;;;8.43;2.92;;;;;;;;;;5014547;28;20447;-69
2022/04/08 10:35:24;;;;;;;3.80;1.65;;;;;;;;;;5014819;28;20109;-67
2022/04/08 10:38:00;;;;;;;5.53;2.17;;;;;;;;;;5013826;28;20490;-68
2022/04/08 10:40:33;;;;;;;6.28;2.83;;;;;;;;;;5014386;28;20025;-66
2022/04/08 10:43:00;;;;;;;4.63;2.55;;;;;;;;;;5014637;28;20120;-68
2022/04/08 10:45:27;;;;;;;3.17;1.92;;;;;;;;;;5049263;28;20029;-68
2022/04/08 10:47:53;;;;;;;2.85;1.70;;;;;;;;;;5053231;28;20027;-66
2022/04/08 10:50:33;;;;;;;4.30;2.20;;;;;;;;;;5053908;28;20387;-67
2022/04/08 10:53:04;;;;;;;7.28;3.13;;;;;;;;;;5054079;28;20514;-69
2022/04/08 10:55:30;;;;;;;6.55;3.47;;;;;;;;;;5053851;28;20100;-66
2022/04/08 10:57:58;;;;;;;4.88;1.77;;;;;;;;;;5046653;28;20098;-69
2022/04/08 11:00:25;;;;;;;1.40;0.85;;;;;;;;;;5034084;28;20196;-67
2022/04/08 11:02:53;;;;;;;4.32;1.90;;;;;;;;;;5016203;28;20513;-67
2022/04/08 11:05:20;;;;;;;7.32;1.75;;;;;;;;;;5034245;28;20494;-68
2022/04/08 11:07:47;;;;;;;7.78;2.55;;;;;;;;;;5033452;28;20021;-67
2022/04/08 11:10:17;;;;;;;5.20;1.92;;;;;;;;;;5043573;28;20029;-68
2022/04/08 11:12:56;;;;;;;7.00;2.15;;;;;;;;;;5053613;28;20025;-67
2022/04/08 11:15:24;;;;;;;5.70;2.63;;;;;;;;;;5053754;28;20029;-68
2022/04/08 11:17:50;;;;;;;6.70;2.30;;;;;;;;;;5052674;28;20047;-65
2022/04/08 11:20:17;;;;;;;5.35;2.80;;;;;;;;;;5034345;28;20025;-67
2022/04/08 11:22:44;;;;;;;5.15;1.88;;;;;;;;;;5032950;28;20394;-68
2022/04/08 11:25:12;;;;;;;4.35;2.38;;;;;;;;;;5033016;28;20088;-68
2022/04/08 11:27:38;;;;;;;6.03;1.90;;;;;;;;;;5032672;28;20033;-67
2022/04/08 11:30:07;;;;;;;3.58;1.83;;;;;;;;;;5033423;28;20033;-67
2022/04/08 11:32:34;;;;;;;3.95;1.27;;;;;;;;;;5033481;28;20075;-69
2022/04/08 11:35:09;;;;;;;4.20;1.58;;;;;;;;;;5033534;28;20446;-68
2022/04/08 11:37:35;;;;;;;3.05;1.67;;;;;;;;;;5014589;28;20025;-64
2022/04/08 11:40:02;;;;;;;5.38;2.20;;;;;;;;;;5033424;28;20402;-67
2022/04/08 11:42:28;;;;;;;4.32;1.73;;;;;;;;;;5032630;28;20047;-66
2022/04/08 11:44:54;;;;;;;3.75;2.10;;;;;;;;;;5033032;28;20029;-67
2022/04/08 11:47:29;;;;;;;6.25;2.03;;;;;;;;;;5032122;28;20028;-66
2022/04/08 11:50:02;;;;;;;4.93;2.67;;;;;;;;;;5033298;28;20497;-66
2022/04/08 11:52:28;;;;;;;4.90;2.25;;;;;;;;;;5035982;28;20029;-68
2022/04/08 11:54:56;;;;;;;6.13;2.70;;;;;;;;;;5052976;28;20013;-67
2022/04/08 11:57:29;;;;;;;6.00;2.42;;;;;;;;;;5032742;28;20124;-66
2022/04/08 11:59:55;;;;;;;7.20;3.80;;;;;;;;;;5032940;28;20021;-68
2022/04/08 12:02:21;;;;;;;4.15;1.77;;;;;;;;;;5032739;28;20022;-66
2022/04/08 12:04:50;;;;;;;6.30;2.75;;;;;;;;;;5033150;28;20026;-68
2022/04/08 12:07:28;;;;;;;2.90;1.77;;;;;;;;;;5032188;28;20487;-65
2022/04/08 12:09:54;;;;;;;3.58;1.73;;;;;;;;;;5033139;28;20550;-68
2022/04/08 12:12:27;;;;;;;4.80;1.88;;;;;;;;;;5033303;28;20022;-68
2022/04/08 12:14:53;;;;;;;5.05;1.90;;;;;;;;;;5032610;28;20026;-69
2022/04/08 12:17:20;;;;;;;8.05;2.55;;;;;;;;;;5031369;28;20025;-67
2022/04/08 12:19:47;;;;;;;4.25;1.98;;;;;;;;;;5025808;28;20022;-66
2022/04/08 12:22:14;;;;;;;6.60;2.13;;;;;;;;;;5032172;28;20026;-67
2022/04/08 12:24:42;;;;;;;3.25;2.10;;;;;;;;;;5032496;28;20039;-65
2022/04/08 12:27:17;;;;;;;6.13;2.67;;;;;;;;;;5031346;28;20034;-65
2022/04/08 12:29:45;;;;;;;6.80;2.92;;;;;;;;;;5032415;28;20047;-68
2022/04/08 12:32:15;;;;;;;6.70;2.90;;;;;;;;;;5031874;28;20014;-66
2022/04/08 12:34:42;;;;;;;6.70;3.90;;;;;;;;;;5031773;28;20128;-66
2022/04/08 12:37:08;;;;;;;7.15;2.45;;;;;;;;;;5030099;28;20032;-67
2022/04/08 12:39:34;;;;;;;4.18;2.35;;;;;;;;;;5031346;28;20438;-68
2022/04/08 12:42:01;;;;;;;5.88;2.47;;;;;;;;;;5031718;28;20101;-67
2022/04/08 12:44:27;;;;;;;3.55;1.77;;;;;;;;;;5032073;28;20499;-68
2022/04/08 12:46:56;;;;;;;3.80;2.30;;;;;;;;;;5032068;28;20116;-68
2022/04/08 12:49:23;;;;;;;3.85;1.50;;;;;;;;;;5030833;28;20033;-67
2022/04/08 12:51:49;;;;;;;4.80;2.20;;;;;;;;;;5032108;28;20445;-69
2022/04/08 12:54:15;;;;;;;3.92;2.33;;;;;;;;;;5049450;28;20017;-67
2022/04/08 12:56:41;;;;;;;3.92;1.90;;;;;;;;;;5033599;28;20075;-67
2022/04/08 12:59:07;;;;;;;3.55;1.70;;;;;;;;;;5034724;28;20032;-69
2022/04/08 13:01:34;;;;;;;3.28;1.98;;;;;;;;;;5031341;28;20542;-67
2022/04/08 13:04:01;;;;;;;5.32;2.67;;;;;;;;;;5031610;28;20025;-69
2022/04/08 13:06:27;;;;;;;3.20;1.98;;;;;;;;;;5031583;28;20029;-68
2022/04/08 13:08:53;;;;;;;5.00;2.47;;;;;;;;;;5030649;28;20025;-67
2022/04/08 13:11:19;;;;;;;5.07;2.58;;;;;;;;;;5031499;28;20029;-66
2022/04/08 13:13:45;;;;;;;3.78;2.00;;;;;;;;;;5031448;28;20380;-68
2022/04/08 13:16:11;;;;;;;6.18;2.22;;;;;;;;;;5031144;28;20317;-67
2022/04/08 13:18:37;;;;;;;5.32;3.05;;;;;;;;;;5027937;28;20052;-68
2022/04/08 13:21:04;;;;;;;5.10;2.35;;;;;;;;;;5030966;28;20077;-68
2022/04/08 13:23:30;;;;;;;5.20;2.22;;;;;;;;;;5013557;28;20022;-65
2022/04/08 13:25:56;;;;;;;7.28;2.22;;;;;;;;;;5030594;28;20095;-68
2022/04/08 13:28:22;;;;;;;5.63;2.60;;;;;;;;;;5042964;28;20036;-67
2022/04/08 13:30:48;;;;;;;4.65;2.00;;;;;;;;;;5016114;28;20068;-67
2022/04/08 13:33:14;;;;;;;5.05;2.38;;;;;;;;;;5011354;28;20445;-68
2022/04/08 13:35:40;;;;;;;3.47;2.03;;;;;;;;;;5011626;28;20116;-68
2022/04/08 13:38:06;;;;;;;3.78;1.73;;;;;;;;;;5010616;28;20538;-68
2022/04/08 13:40:32;;;;;;;3.58;2.00;;;;;;;;;;4993650;28;20088;-67
2022/04/08 13:43:00;;;;;;;5.38;2.50;;;;;;;;;;4993580;28;20045;-68
2022/04/08 13:45:26;;;;;;;5.88;2.95;;;;;;;;;;5011442;28;20473;-69
2022/04/08 13:47:52;;;;;;;4.07;2.80;;;;;;;;;;4994002;28;20036;-68
2022/04/08 13:50:18;;;;;;;5.18;2.85;;;;;;;;;;4997341;28;20026;-68
2022/04/08 13:52:44;;;;;;;8.40;3.42;;;;;;;;;;5007559;28;20429;-67
2022/04/08 13:55:10;;;;;;;8.00;4.35;;;;;;;;;;5036917;28;20032;-68
2022/04/08 13:57:36;;;;;;;5.47;2.38;;;;;;;;;;5050934;28;20021;-67
2022/04/08 14:00:03;;;;;;;2.45;1.58;;;;;;;;;;5034849;28;20075;-69
2022/04/08 14:02:29;;;;;;;5.55;2.40;;;;;;;;;;5034940;28;20036;-68
2022/04/08 14:04:55;;;;;;;3.45;1.60;;;;;;;;;;5035102;28;20387;-67
2022/04/08 14:07:21;;;;;;;2.70;1.48;;;;;;;;;;5015965;28;20025;-67
2022/04/08 14:09:47;;;;;;;5.13;2.70;;;;;;;;;;5037599;28;20124;-66
2022/04/08 14:12:13;;;;;;;3.47;1.83;;;;;;;;;;5054633;28;20433;-69
2022/04/08 14:14:41;;;;;;;5.10;2.08;;;;;;;;;;5054330;28;20048;-65
2022/04/08 14:17:07;;;;;;;3.05;1.42;;;;;;;;;;5053770;28;20127;-67
2022/04/08 14:19:33;;;;;;;4.68;2.45;;;;;;;;;;5032222;28;20039;-66
2022/04/08 14:22:00;;;;;;;2.78;1.30;;;;;;;;;;5033658;28;20555;-67
2022/04/08 14:24:26;;;;;;;1.98;1.33;;;;;;;;;;5034174;28;20037;-65
2022/04/08 14:26:52;;;;;;;2.90;1.60;;;;;;;;;;5032383;28;20029;-66
2022/04/08 14:29:18;;;;;;;3.50;0.90;;;;;;;;;;5014412;28;20021;-68
2022/04/08 14:31:44;;;;;;;1.02;0.85;;;;;;;;;;5018942;28;20100;-67
2022/04/08 14:34:11;;;;;;;2.42;1.17;;;;;;;;;;5025310;28;20116;-64
2022/04/08 14:36:39;;;;;;;1.45;1.02;;;;;;;;;;5032099;28;20573;-65
2022/04/08 14:39:06;;;;;;;3.78;0.95;;;;;;;;;;5031769;28;20073;-66